Southern Seward Peninsula Fax Sheet

SIGMETs

Area Forecast for Southern Seward Peninsula
SRN SEWARD PEN AND ERN NORTON SOUND FJ...VALID UNTIL 290800
...CLOUDS/WX...
***AIRMET MT OBSC***SRN SEWARD PEN MTS OCNL OBSC IN CLDS/ISOL
PCPN. IMPR... OTRW
SRN SEWARD PEN MTS SCT015 BKN025 OVC040 TOPS TO 100 CI ABV.
ISOL CIG BLW 010 VIS BLW 3SM -RA/BR.
ELSW SCT025 SCT-BKN45 CI ABV. ISOL BKN025.
VCY PAUN ISOL BKN025TCU TOP FL180 -SHRA.
OTLK VALID 290800-291400...OFSHR IFR CIG BR. ELSW MVFR CIG.
...TURB...
NIL SIG. EXC VCY TCU.
...ICE AND FZLVL...
NE PAGL-PAUN LN ISOL MOD ICEIC 050-100. FZLVL 015.

TAFs
PAOM 282342Z 2900/2924 12012KT P6SM VCSH BKN015 OVC035
      TEMPO 2902/2904 SCT015 BKN040
     FM290400 09008KT P6SM SCT025 BKN060 BKN100
     FM290900 04004KT P6SM SCT050 BKN100 BKN200
     FM292000 12011KT P6SM VCSH BKN050 BKN100=
PAUN 282342Z 2900/2924 31008KT P6SM VCSH SCT010 BKN080
     FM290400 05006KT P6SM SCT015 BKN080
     FM291200 09007KT P6SM SCT050 BKN100=

Observations
PAOM  MA 28 2251Z FEW012 SCT017 OVC036      10          36  34 12012     994  92%  27    
PAKV  AA 28 2253Z OVC028                    10          43  36 24004     999  76%  40    
PASH  AA 28 2256Z SCT025 OVC031              2          30  27 23005     999  88%  24    
PASM  AA 28 2256Z BKN024 OVC032             10 R-       41  35 11010G15  994  79%  34    
PAUN  AA 28 2256Z CLR                       10          40  35 31008     998  82%  34    
PAEM  AA 28 2256Z                           10          45  33 16012     993  63%  39    
PAHP  AA 28 2256Z BKN002                    10          38  36 16008     992  92%  32    
PAKK  AA 28 2256Z OVC031                    10          36  19 18005     997  50%  31    
PAMK  AA 28 2256Z OVC070                    10          38  34 07009     997  85%  31    
PAMO  AA 28 2256Z BKN020                                43  34 14009     994  70%  37    
PANV  AA 28 2256Z BKN075                    10          46  32 03005     993  58%  43    
PACZ  AA 28 2255Z SCT016 BKN060             10          36  34 22011     989  92%  28    
PATC  AA 28 2255Z SCT004 OVC029             10          32  32 18010     991 100%  23    

Pilot Reports